Lagoon City, Ontario

Past 24 Hour Conditions

This table is a summary of hourly weather conditions for the past 24 hours. This summary includes the following parameters: temperature, humidity, dew point, wind speed and direction, air pressure, visibility and/or wind chill and humidex.
Date / Time
(EDT)
Conditions Temp (°F) Humidity (%) Dew Point (°F) Wind (mph) Pressure (inches) Vis (mi) Humidex
01 August 2014
8:00 N/A 65 78 58 SSW 10 30.1 N/A *
7:00 N/A 64 82 58 SSW 11 30.1 N/A *
6:00 N/A 64 83 59 S 10 30.0 N/A *
5:00 N/A 64 82 59 S 8 30.0 N/A *
4:00 N/A 65 83 60 S 10 30.0 N/A *
3:00 N/A 67 79 60 WSW 9 30.0 N/A *
2:00 N/A 67 77 60 SW 13 30.0 N/A *
1:00 N/A 68 78 60 SW 13 30.0 N/A *
00:00 N/A 69 76 61 SW 8 30.0 N/A 77
31 July 2014
23:00 N/A 69 70 59 SW 8 30.0 N/A 76
22:00 N/A 69 71 59 SSW 4 30.0 N/A 77
21:00 N/A 69 67 58 SSW 2 30.0 N/A *
20:00 N/A 72   55 55 calm 30.0 N/A 77
19:00 N/A 70 61 56 SW 4 30.0 N/A *
18:00 N/A 70 62 57 SSW 7 30.0 N/A *
17:00 N/A 70 63 57 SSW 8 30.0 N/A *
16:00 N/A 69 61 55 SSW 9 30.0 N/A *
15:00 N/A 68 60 54 SW 13 30.0 N/A *
14:00 N/A 67 61 53 SSW 10 30.0 N/A *
13:00 N/A 65 62 52 SSW 10 30.0 N/A *
12:00 N/A 64 58 49 SW 9 30.0 N/A *
11:00 N/A 63 63 50 S 8 30.0 N/A *
10:00 N/A 62 72 53 S 7 30.0 N/A *
9:00 N/A 61 83 56 SSE 6 30.0 N/A *
8:00 N/A 59   74 51 ENE 2 30.0 N/A *
N/A
Not available
 ↑ 
Highest temperature
 ↓ 
Lowest temperature
*
Value not significant.

If you require additional historical weather information, please visit Climate Data Online.